createdAt,value
2023-05-10T00:01:29.601Z,100.00
2023-05-10T00:03:57.797Z,100.00
2023-05-10T00:06:26.082Z,100.00
2023-05-10T00:08:54.328Z,100.00
2023-05-10T00:11:23.121Z,100.00
2023-05-10T00:13:51.400Z,100.00
2023-05-10T00:16:19.458Z,100.00
2023-05-10T00:18:47.576Z,100.00
2023-05-10T00:21:17.681Z,100.00
2023-05-10T00:23:45.906Z,100.00
2023-05-10T00:26:13.887Z,100.00
2023-05-10T00:28:43.081Z,100.00
2023-05-10T00:31:11.463Z,100.00
2023-05-10T00:33:39.501Z,100.00
2023-05-10T00:36:08.510Z,100.00
2023-05-10T00:38:36.495Z,100.00
2023-05-10T00:41:05.069Z,100.00
2023-05-10T00:43:33.765Z,100.00
2023-05-10T00:46:01.999Z,100.00
2023-05-10T00:48:30.711Z,100.00
2023-05-10T00:50:58.773Z,100.00
2023-05-10T00:53:28.373Z,100.00
2023-05-10T00:55:58.193Z,100.00
2023-05-10T00:58:29.402Z,100.00
2023-05-10T01:00:58.817Z,100.00
2023-05-10T01:03:27.499Z,100.00
2023-05-10T01:05:56.299Z,100.00
2023-05-10T01:08:24.600Z,100.00
2023-05-10T01:10:54.170Z,100.00
2023-05-10T01:13:38.384Z,100.00
2023-05-10T01:16:07.901Z,100.00
2023-05-10T01:18:42.660Z,100.00
2023-05-10T01:21:16.593Z,100.00
2023-05-10T01:24:09.549Z,100.00
2023-05-10T01:27:25.401Z,100.00
2023-05-10T01:30:18.547Z,100.00
2023-05-10T01:33:08.329Z,100.00
2023-05-10T01:36:27.303Z,100.00
2023-05-10T01:39:25.589Z,100.00
2023-05-10T01:42:15.848Z,100.00
2023-05-10T01:44:59.006Z,100.00
2023-05-10T01:47:38.506Z,100.00
2023-05-10T01:50:16.284Z,100.00
2023-05-10T01:52:51.197Z,100.00
2023-05-10T01:55:24.441Z,100.00
2023-05-10T01:57:58.721Z,100.00
2023-05-10T02:00:28.908Z,100.00
2023-05-10T02:02:58.430Z,100.00
2023-05-10T02:05:28.845Z,100.00
2023-05-10T02:07:59.817Z,100.00
2023-05-10T02:10:29.700Z,100.00
2023-05-10T02:13:01.156Z,100.00
2023-05-10T02:15:31.046Z,100.00
2023-05-10T02:18:02.025Z,100.00
2023-05-10T02:20:32.381Z,100.00
2023-05-10T02:23:02.037Z,100.00
2023-05-10T02:25:33.269Z,100.00
2023-05-10T02:28:04.155Z,100.00
2023-05-10T02:30:34.640Z,100.00
2023-05-10T02:33:05.501Z,100.00
2023-05-10T02:35:35.016Z,100.00
2023-05-10T02:38:05.230Z,100.00
2023-05-10T02:40:34.984Z,100.00
2023-05-10T02:43:03.712Z,100.00
2023-05-10T02:45:34.741Z,100.00
2023-05-10T02:48:03.900Z,100.00
2023-05-10T02:50:34.535Z,100.00
2023-05-10T02:53:08.223Z,100.00
2023-05-10T02:55:43.136Z,100.00
2023-05-10T02:58:11.176Z,100.00
2023-05-10T03:00:39.324Z,100.00
2023-05-10T03:03:08.061Z,100.00
2023-05-10T03:05:36.184Z,100.00
2023-05-10T03:08:05.853Z,100.00
2023-05-10T03:10:39.247Z,100.00
2023-05-10T03:13:12.435Z,100.00
2023-05-10T03:15:43.649Z,100.00
2023-05-10T03:18:18.054Z,100.00
2023-05-10T03:20:50.026Z,100.00
2023-05-10T03:23:28.354Z,100.00
2023-05-10T03:25:56.743Z,100.00
2023-05-10T03:28:27.958Z,100.00
2023-05-10T03:30:57.752Z,100.00
2023-05-10T03:33:26.064Z,100.00
2023-05-10T03:35:54.763Z,100.00
2023-05-10T03:38:22.740Z,100.00
2023-05-10T03:40:51.018Z,100.00
2023-05-10T03:43:19.130Z,100.00
2023-05-10T03:45:47.837Z,100.00
2023-05-10T03:48:16.025Z,100.00
2023-05-10T03:50:44.380Z,100.00
2023-05-10T03:53:13.611Z,100.00
2023-05-10T03:55:41.797Z,100.00
2023-05-10T03:58:12.941Z,100.00
2023-05-10T04:00:47.061Z,100.00
2023-05-10T04:03:16.948Z,100.00
2023-05-10T04:05:45.156Z,100.00
2023-05-10T04:08:13.746Z,100.00
2023-05-10T04:10:42.121Z,100.00
2023-05-10T04:13:10.149Z,100.00
2023-05-10T04:15:38.565Z,100.00
2023-05-10T04:18:08.649Z,100.00
2023-05-10T04:20:37.000Z,100.00
2023-05-10T04:23:04.973Z,100.00
2023-05-10T04:25:36.065Z,100.00
2023-05-10T04:28:04.390Z,100.00
2023-05-10T04:30:32.455Z,100.00
2023-05-10T04:33:00.754Z,100.00
2023-05-10T04:35:29.525Z,100.00
2023-05-10T04:37:57.557Z,100.00
2023-05-10T04:40:25.796Z,100.00
2023-05-10T04:42:53.958Z,100.00
2023-05-10T04:45:23.614Z,100.00
2023-05-10T04:47:52.016Z,100.00
2023-05-10T04:50:20.538Z,100.00
2023-05-10T04:52:48.659Z,100.00
2023-05-10T04:55:17.134Z,100.00
2023-05-10T04:57:46.225Z,100.00
2023-05-10T05:00:15.413Z,100.00
2023-05-10T05:02:48.041Z,100.00
2023-05-10T05:05:16.542Z,100.00
2023-05-10T05:07:44.774Z,100.00
2023-05-10T05:10:13.072Z,100.00
2023-05-10T05:12:41.451Z,100.00
2023-05-10T05:15:10.811Z,100.00
2023-05-10T05:17:38.851Z,100.00
2023-05-10T05:20:07.665Z,100.00
2023-05-10T05:22:37.874Z,100.00
2023-05-10T05:25:07.128Z,100.00
2023-05-10T05:27:35.584Z,100.00
2023-05-10T05:30:06.112Z,100.00
2023-05-10T05:32:34.447Z,100.00
2023-05-10T05:35:03.238Z,100.00
2023-05-10T05:37:31.681Z,100.00
2023-05-10T05:40:02.876Z,100.00
2023-05-10T05:42:32.298Z,100.00
2023-05-10T05:45:00.756Z,100.00
2023-05-10T05:47:29.281Z,100.00
2023-05-10T05:49:59.504Z,100.00
2023-05-10T05:52:29.274Z,100.00
2023-05-10T05:54:58.237Z,100.00
2023-05-10T05:57:27.807Z,100.00
2023-05-10T05:59:55.829Z,100.00
2023-05-10T06:02:24.172Z,100.00
2023-05-10T06:04:52.669Z,100.00
2023-05-10T06:07:21.305Z,100.00
2023-05-10T06:09:50.654Z,100.00
2023-05-10T06:12:18.772Z,100.00
2023-05-10T06:14:47.285Z,100.00
2023-05-10T06:17:15.712Z,100.00
2023-05-10T06:19:45.938Z,100.00
2023-05-10T06:22:14.548Z,100.00
2023-05-10T06:24:44.690Z,100.00
2023-05-10T06:27:12.876Z,100.00
2023-05-10T06:29:41.360Z,100.00
2023-05-10T06:32:09.417Z,100.00
2023-05-10T06:34:43.116Z,100.00
2023-05-10T06:37:11.725Z,100.00
2023-05-10T06:39:39.853Z,100.00
2023-05-10T06:42:10.684Z,100.00
2023-05-10T06:44:39.838Z,100.00
2023-05-10T06:47:08.993Z,100.00
2023-05-10T06:49:48.208Z,100.00
2023-05-10T06:52:16.757Z,100.00
2023-05-10T06:54:45.509Z,100.00
2023-05-10T06:57:30.569Z,100.00
2023-05-10T07:00:00.745Z,100.00
2023-05-10T07:02:31.362Z,100.00
2023-05-10T07:05:02.362Z,100.00
2023-05-10T07:07:35.064Z,100.00
2023-05-10T07:10:04.452Z,100.00
2023-05-10T07:12:32.969Z,100.00
2023-05-10T07:15:02.598Z,100.00
2023-05-10T07:17:32.008Z,100.00
2023-05-10T07:20:01.970Z,100.00
2023-05-10T07:22:31.407Z,100.00
2023-05-10T07:24:59.849Z,100.00
2023-05-10T07:27:28.043Z,100.00
2023-05-10T07:29:57.669Z,100.00
2023-05-10T07:32:27.741Z,100.00
2023-05-10T07:34:56.877Z,100.00
2023-05-10T07:37:32.748Z,99.59
2023-05-10T07:42:49.532Z,98.42
2023-05-10T07:45:18.074Z,97.66
2023-05-10T07:47:46.784Z,97.92
2023-05-10T07:50:15.580Z,98.09
2023-05-10T07:52:44.033Z,97.95
2023-05-10T07:55:16.293Z,97.57
2023-05-10T07:57:58.539Z,94.20
2023-05-10T08:00:27.075Z,95.13
2023-05-10T08:02:59.523Z,94.26
2023-05-10T08:05:28.726Z,94.17
2023-05-10T08:07:56.904Z,93.10
2023-05-10T08:10:25.824Z,92.56
2023-05-10T08:12:55.035Z,92.46
2023-05-10T08:15:23.484Z,90.33
2023-05-10T08:17:55.934Z,88.74
2023-05-10T08:20:24.542Z,87.77
2023-05-10T08:22:55.597Z,86.97
2023-05-10T08:25:25.770Z,86.60
2023-05-10T08:27:54.626Z,86.69
2023-05-10T08:30:23.076Z,83.65
2023-05-10T08:32:52.350Z,83.68
2023-05-10T08:35:20.790Z,83.46
2023-05-10T08:37:48.987Z,80.38
2023-05-10T08:40:17.405Z,79.78
2023-05-10T08:42:58.967Z,77.43
2023-05-10T08:45:32.270Z,75.31
2023-05-10T08:48:07.952Z,74.01
2023-05-10T08:50:44.027Z,72.93
2023-05-10T08:53:14.656Z,73.62
2023-05-10T08:55:44.025Z,71.75
2023-05-10T08:58:12.244Z,69.53
2023-05-10T09:00:41.447Z,66.23
2023-05-10T09:03:11.779Z,65.86
2023-05-10T09:05:40.254Z,67.12
2023-05-10T09:08:09.820Z,68.72
2023-05-10T09:10:41.275Z,69.11
2023-05-10T09:13:13.173Z,65.94
2023-05-10T09:15:47.843Z,64.35
2023-05-10T09:18:17.200Z,63.77
2023-05-10T09:20:45.986Z,64.28
2023-05-10T09:23:14.624Z,62.95
2023-05-10T09:26:24.711Z,61.51
2023-05-10T09:29:51.530Z,58.36
2023-05-10T09:32:47.197Z,53.84
2023-05-10T09:35:20.262Z,52.33
2023-05-10T09:38:08.402Z,53.09
2023-05-10T09:40:37.579Z,52.50
2023-05-10T09:43:08.765Z,51.49
2023-05-10T09:45:38.847Z,49.13
2023-05-10T09:48:08.707Z,47.04
2023-05-10T09:50:37.745Z,45.40
2023-05-10T09:53:06.987Z,45.03
2023-05-10T09:55:46.321Z,46.30
2023-05-10T09:58:15.940Z,45.37
2023-05-10T10:00:49.019Z,45.16
2023-05-10T10:03:27.778Z,45.76
2023-05-10T10:05:58.003Z,45.42
2023-05-10T10:08:28.076Z,45.00
2023-05-10T10:10:57.291Z,45.06
2023-05-10T10:13:26.512Z,45.97
2023-05-10T10:15:56.201Z,46.11
2023-05-10T10:18:30.951Z,45.54
2023-05-10T10:21:00.510Z,43.87
2023-05-10T10:23:31.399Z,43.40
2023-05-10T10:26:04.195Z,43.43
2023-05-10T10:29:07.464Z,43.63
2023-05-10T10:32:05.756Z,43.45
2023-05-10T10:34:34.947Z,43.71
2023-05-10T10:37:08.104Z,42.57
2023-05-10T10:39:37.978Z,40.98
2023-05-10T10:42:07.170Z,40.20
2023-05-10T10:44:38.204Z,39.78
2023-05-10T10:47:10.670Z,38.80
2023-05-10T10:49:43.594Z,38.41
2023-05-10T10:52:43.960Z,37.34
2023-05-10T10:55:20.628Z,36.52
2023-05-10T10:58:01.980Z,35.99
2023-05-10T11:00:39.447Z,36.77
2023-05-10T11:03:20.266Z,37.27
2023-05-10T11:06:10.452Z,37.23
2023-05-10T11:08:53.036Z,37.38
2023-05-10T11:11:36.694Z,37.52
2023-05-10T11:14:25.837Z,37.62
2023-05-10T11:16:58.338Z,38.16
2023-05-10T11:19:31.258Z,37.85
2023-05-10T11:22:05.663Z,38.11
2023-05-10T11:24:36.176Z,37.33
2023-05-10T11:27:07.671Z,36.89
2023-05-10T11:29:37.573Z,36.78
2023-05-10T11:32:09.235Z,36.91
2023-05-10T11:34:37.506Z,37.12
2023-05-10T11:37:06.062Z,36.98
2023-05-10T11:39:35.200Z,36.86
2023-05-10T11:42:13.546Z,36.84
2023-05-10T11:44:43.759Z,35.97
2023-05-10T11:47:17.561Z,34.80
2023-05-10T11:49:49.742Z,34.73
2023-05-10T11:52:20.244Z,34.84
2023-05-10T11:54:55.808Z,35.87
2023-05-10T11:57:32.364Z,35.29
2023-05-10T12:00:06.443Z,35.26
2023-05-10T12:02:36.587Z,34.50
2023-05-10T12:05:06.520Z,33.75
2023-05-10T12:07:36.353Z,33.60
2023-05-10T12:10:16.598Z,32.69
2023-05-10T12:12:49.651Z,31.79
2023-05-10T12:15:26.166Z,31.13
2023-05-10T12:17:56.576Z,31.24
2023-05-10T12:20:31.212Z,30.76
2023-05-10T12:23:00.944Z,30.83
2023-05-10T12:25:39.268Z,30.33
2023-05-10T12:28:11.910Z,30.22
2023-05-10T12:30:40.565Z,30.09
2023-05-10T12:33:15.677Z,29.87
2023-05-10T12:35:49.753Z,29.90
2023-05-10T12:38:35.540Z,29.41
2023-05-10T12:41:05.897Z,29.85
2023-05-10T12:43:52.656Z,30.08
2023-05-10T12:46:48.122Z,29.55
2023-05-10T12:49:21.426Z,30.15
2023-05-10T12:51:51.093Z,30.48
2023-05-10T12:54:20.045Z,30.08
2023-05-10T12:56:49.167Z,29.82
2023-05-10T12:59:24.379Z,29.45
2023-05-10T13:01:53.000Z,29.82
2023-05-10T13:04:21.750Z,31.04
2023-05-10T13:06:51.618Z,30.71
2023-05-10T13:09:21.677Z,30.06
2023-05-10T13:11:50.416Z,29.67
2023-05-10T13:14:21.677Z,29.56
2023-05-10T13:16:50.034Z,29.74
2023-05-10T13:19:21.734Z,30.16
2023-05-10T13:21:51.475Z,29.88
2023-05-10T13:24:20.103Z,29.18
2023-05-10T13:26:49.803Z,28.68
2023-05-10T13:29:20.915Z,28.04
2023-05-10T13:31:49.532Z,28.45
2023-05-10T13:34:21.712Z,28.37
2023-05-10T13:36:51.022Z,27.90
2023-05-10T13:39:19.517Z,27.93
2023-05-10T13:41:50.322Z,28.10
2023-05-10T13:44:21.884Z,27.81
2023-05-10T13:46:50.957Z,28.15
2023-05-10T13:49:21.267Z,28.78
2023-05-10T13:51:50.680Z,29.00
2023-05-10T13:54:22.810Z,29.47
2023-05-10T13:56:51.851Z,29.95
2023-05-10T13:59:23.157Z,29.81
2023-05-10T14:01:52.350Z,29.84
2023-05-10T14:04:20.881Z,28.72
2023-05-10T14:06:49.313Z,27.74
2023-05-10T14:09:18.214Z,27.13
2023-05-10T14:11:47.013Z,26.53
2023-05-10T14:14:15.399Z,25.95
2023-05-10T14:16:48.028Z,25.23
2023-05-10T14:19:16.451Z,24.63
2023-05-10T14:21:54.332Z,24.19
2023-05-10T14:24:22.652Z,23.63
2023-05-10T14:26:54.688Z,23.72
2023-05-10T14:29:23.352Z,24.09
2023-05-10T14:31:52.811Z,23.52
2023-05-10T14:34:21.366Z,23.13
2023-05-10T14:36:49.705Z,22.79
2023-05-10T14:39:18.416Z,22.97
2023-05-10T14:41:50.963Z,23.13
2023-05-10T14:44:20.026Z,23.34
2023-05-10T14:46:50.090Z,23.83
2023-05-10T14:49:18.387Z,23.88
2023-05-10T14:51:47.349Z,23.69
2023-05-10T14:54:16.017Z,23.67
2023-05-10T14:56:46.692Z,24.30
2023-05-10T14:59:14.922Z,25.27
2023-05-10T15:01:45.456Z,26.20
2023-05-10T15:04:14.537Z,26.84
2023-05-10T15:06:44.101Z,27.74
2023-05-10T15:09:12.366Z,28.14
2023-05-10T15:11:40.537Z,28.91
2023-05-10T15:14:08.665Z,28.22
2023-05-10T15:16:37.438Z,26.74
2023-05-10T15:19:05.714Z,26.09
2023-05-10T15:21:40.071Z,25.48
2023-05-10T15:24:11.331Z,24.60
2023-05-10T15:26:39.579Z,24.44
2023-05-10T15:29:21.406Z,24.66
2023-05-10T15:31:54.905Z,24.89
2023-05-10T15:34:24.181Z,24.63
2023-05-10T15:36:53.095Z,25.09
2023-05-10T15:39:21.371Z,24.72
2023-05-10T15:41:50.193Z,24.54
2023-05-10T15:44:19.730Z,24.68
2023-05-10T15:46:48.103Z,24.21
2023-05-10T15:49:17.401Z,23.68
2023-05-10T15:51:45.468Z,23.73
2023-05-10T15:54:15.203Z,23.82
2023-05-10T15:56:44.382Z,24.24
2023-05-10T15:59:13.576Z,24.28
2023-05-10T16:01:42.261Z,24.38
2023-05-10T16:04:12.568Z,24.24
2023-05-10T16:06:40.833Z,24.31
2023-05-10T16:09:08.997Z,24.95
2023-05-10T16:11:37.522Z,25.01
2023-05-10T16:14:07.118Z,24.83
2023-05-10T16:16:35.754Z,25.00
2023-05-10T16:19:04.732Z,25.54
2023-05-10T16:21:34.074Z,26.66
2023-05-10T16:24:03.470Z,27.04
2023-05-10T16:26:41.017Z,27.04
2023-05-10T16:29:10.621Z,27.29
2023-05-10T16:31:39.263Z,27.24
2023-05-10T16:34:07.484Z,27.19
2023-05-10T16:36:35.589Z,27.42
2023-05-10T16:39:05.070Z,28.05
2023-05-10T16:41:34.456Z,28.88
2023-05-10T16:44:03.760Z,28.97
2023-05-10T16:46:33.135Z,29.39
2023-05-10T16:49:01.880Z,30.73
2023-05-10T16:51:33.081Z,31.63
2023-05-10T16:54:02.128Z,32.66
2023-05-10T16:56:30.436Z,33.44
2023-05-10T16:58:58.769Z,34.29
2023-05-10T17:01:27.577Z,34.22
2023-05-10T17:03:56.683Z,33.82
2023-05-10T17:06:25.338Z,33.48
2023-05-10T17:08:54.750Z,33.48
2023-05-10T17:11:22.835Z,33.95
2023-05-10T17:13:52.467Z,34.63
2023-05-10T17:16:21.504Z,35.63
2023-05-10T17:18:49.825Z,36.42
2023-05-10T17:21:21.607Z,37.66
2023-05-10T17:23:51.700Z,38.77
2023-05-10T17:26:21.558Z,39.79
2023-05-10T17:28:49.561Z,40.87
2023-05-10T17:31:19.135Z,41.88
2023-05-10T17:33:47.453Z,42.60
2023-05-10T17:36:15.706Z,43.46
2023-05-10T17:38:43.847Z,44.62
2023-05-10T17:41:14.436Z,45.83
2023-05-10T17:43:43.635Z,47.13
2023-05-10T17:46:13.059Z,48.84
2023-05-10T17:48:42.015Z,50.59
2023-05-10T17:51:18.389Z,52.28
2023-05-10T17:53:48.168Z,53.88
2023-05-10T17:56:16.306Z,56.24
2023-05-10T17:58:44.561Z,58.85
2023-05-10T18:01:13.394Z,61.31
2023-05-10T18:03:43.190Z,62.77
2023-05-10T18:06:11.325Z,66.35
2023-05-10T18:08:39.465Z,68.66
2023-05-10T18:11:09.760Z,72.35
2023-05-10T18:13:38.505Z,74.00
2023-05-10T18:16:10.182Z,76.45
2023-05-10T18:18:39.627Z,77.79
2023-05-10T18:21:07.728Z,79.34
2023-05-10T18:23:35.912Z,80.72
2023-05-10T18:26:04.124Z,81.87
2023-05-10T18:28:32.396Z,83.29
2023-05-10T18:31:01.007Z,83.37
2023-05-10T18:33:29.243Z,84.47
2023-05-10T18:35:57.346Z,84.98
2023-05-10T18:38:25.518Z,85.65
2023-05-10T18:40:55.692Z,86.20
2023-05-10T18:43:23.974Z,86.25
2023-05-10T18:45:52.971Z,87.00
2023-05-10T18:48:22.904Z,88.01
2023-05-10T18:50:51.272Z,88.53
2023-05-10T18:53:19.431Z,88.25
2023-05-10T18:55:55.824Z,90.19
2023-05-10T18:58:24.122Z,92.12
2023-05-10T19:00:52.653Z,93.64
2023-05-10T19:03:22.062Z,91.41
2023-05-10T19:05:50.755Z,91.99
2023-05-10T19:08:18.834Z,94.82
2023-05-10T19:10:47.240Z,95.96
2023-05-10T19:13:15.551Z,98.36
2023-05-10T19:15:44.270Z,98.44
2023-05-10T19:18:13.821Z,98.23
2023-05-10T19:20:42.544Z,99.76
2023-05-10T19:23:10.796Z,99.97
2023-05-10T19:25:39.905Z,99.86
2023-05-10T19:28:11.812Z,99.20
2023-05-10T19:30:40.297Z,99.95
2023-05-10T19:33:10.188Z,100.00
2023-05-10T19:35:38.406Z,100.00
2023-05-10T19:38:07.016Z,100.00
2023-05-10T19:40:36.247Z,100.00
2023-05-10T19:43:04.792Z,100.00
2023-05-10T19:45:32.963Z,100.00
2023-05-10T19:48:01.489Z,100.00
2023-05-10T19:50:29.583Z,100.00
2023-05-10T19:52:58.537Z,100.00
2023-05-10T19:55:31.327Z,100.00
2023-05-10T19:58:02.764Z,100.00
2023-05-10T20:00:31.712Z,100.00
2023-05-10T20:02:59.951Z,100.00
2023-05-10T20:05:31.307Z,100.00
2023-05-10T20:07:59.347Z,100.00
2023-05-10T20:10:27.406Z,100.00
2023-05-10T20:12:55.585Z,100.00
2023-05-10T20:15:23.757Z,100.00
2023-05-10T20:17:53.720Z,100.00
2023-05-10T20:20:22.365Z,100.00
2023-05-10T20:22:50.694Z,100.00
2023-05-10T20:25:19.092Z,100.00
2023-05-10T20:27:47.213Z,100.00
2023-05-10T20:30:16.378Z,100.00
2023-05-10T20:32:44.855Z,100.00
2023-05-10T20:35:12.997Z,100.00
2023-05-10T20:37:42.361Z,100.00
2023-05-10T20:40:11.169Z,100.00
2023-05-10T20:42:39.326Z,100.00
2023-05-10T20:45:07.868Z,100.00
2023-05-10T20:47:36.182Z,100.00
2023-05-10T20:50:05.938Z,100.00
2023-05-10T20:52:33.974Z,100.00
2023-05-10T20:55:02.164Z,100.00
2023-05-10T20:57:32.416Z,100.00
2023-05-10T21:00:01.882Z,100.00
2023-05-10T21:02:30.059Z,100.00
2023-05-10T21:04:58.328Z,100.00
2023-05-10T21:07:26.443Z,100.00
2023-05-10T21:09:54.350Z,100.00
2023-05-10T21:12:22.349Z,100.00
2023-05-10T21:14:50.382Z,100.00
2023-05-10T21:17:20.131Z,100.00
2023-05-10T21:19:49.366Z,100.00
2023-05-10T21:22:17.580Z,100.00
2023-05-10T21:24:45.718Z,100.00
2023-05-10T21:27:14.069Z,100.00
2023-05-10T21:29:42.100Z,100.00
2023-05-10T21:32:10.606Z,100.00
2023-05-10T21:34:38.663Z,100.00
2023-05-10T21:37:07.496Z,100.00
2023-05-10T21:39:36.048Z,100.00
2023-05-10T21:42:04.287Z,100.00
2023-05-10T21:44:32.649Z,100.00
2023-05-10T21:47:00.898Z,100.00
2023-05-10T21:49:28.890Z,100.00
2023-05-10T21:51:57.053Z,100.00
2023-05-10T21:54:25.322Z,100.00
2023-05-10T21:56:53.705Z,100.00
2023-05-10T21:59:21.798Z,100.00
2023-05-10T22:01:50.818Z,100.00
2023-05-10T22:04:19.363Z,100.00
2023-05-10T22:06:47.982Z,100.00
2023-05-10T22:09:16.506Z,100.00
2023-05-10T22:11:44.547Z,100.00
2023-05-10T22:14:12.628Z,100.00
2023-05-10T22:16:40.693Z,100.00
2023-05-10T22:19:09.806Z,100.00
2023-05-10T22:21:38.009Z,100.00
2023-05-10T22:24:06.186Z,100.00
2023-05-10T22:26:36.241Z,100.00
2023-05-10T22:29:04.497Z,100.00
2023-05-10T22:31:32.809Z,100.00
2023-05-10T22:34:00.845Z,100.00
2023-05-10T22:36:30.152Z,100.00
2023-05-10T22:38:58.607Z,100.00
2023-05-10T22:41:26.706Z,100.00
2023-05-10T22:43:54.801Z,100.00
2023-05-10T22:46:23.827Z,100.00
2023-05-10T22:48:52.488Z,100.00
2023-05-10T22:51:21.319Z,100.00
2023-05-10T22:53:49.388Z,100.00
2023-05-10T22:56:17.463Z,100.00
2023-05-10T22:58:45.826Z,100.00
2023-05-10T23:01:13.943Z,100.00
2023-05-10T23:03:42.457Z,100.00
2023-05-10T23:06:11.424Z,100.00
2023-05-10T23:08:39.861Z,100.00
2023-05-10T23:11:08.249Z,100.00
2023-05-10T23:13:36.565Z,100.00
2023-05-10T23:16:06.562Z,100.00
2023-05-10T23:18:34.783Z,100.00
2023-05-10T23:21:02.980Z,100.00
2023-05-10T23:23:32.768Z,100.00
2023-05-10T23:26:01.577Z,100.00
2023-05-10T23:28:29.515Z,100.00
2023-05-10T23:30:58.842Z,100.00
2023-05-10T23:33:26.922Z,100.00
2023-05-10T23:35:55.251Z,100.00
2023-05-10T23:38:23.363Z,100.00
2023-05-10T23:40:51.598Z,100.00
2023-05-10T23:43:19.909Z,100.00
2023-05-10T23:45:56.665Z,100.00
2023-05-10T23:48:25.041Z,100.00
2023-05-10T23:50:53.214Z,100.00
2023-05-10T23:53:21.428Z,100.00
2023-05-10T23:55:50.414Z,100.00
2023-05-10T23:58:18.314Z,100.00
